No particular awareness of the weather is required.    There are no Weather-warnings


Meteo18 Weather Cam more information Meteo18 Weather Cam


Thunder radar more information blitzortung!


Rain radar more information rain snow radar


Visit our other weather sites:

Template documentation
and downloads

And another site



Weather Underground History page Text

Daily Summary for March 6, 2017 Units:  Metric    English   Both
« Previous Day
Next Day »
Daily Weekly Monthly Yearly Custom
  High: Low: Average:
Temperature: -17.8 °C -15.4 °C -14.2 °C
Dew Point: -17.8 °C -16.3 °C -15.1 °C
Humidity: Humidity % 77 % 89 %
Wind Speed: 0 km/h 0 km/h 22.2 km/h
Wind Gust: 0 km/h - -
Wind:- - WSW
Pressure: 0 hPa 33788.9 hPa -
Precipitation: 330.2 mm    
Historical Graphs
 
 
Tabular Data for March 6, 2017
Time Temperature Dew Point Pressure Wind Wind Speed Wind Gust Humidity Rainfall Rate (Hourly)
-17.8 °C -17.8 °C 0 hPa Calm     Humidity % 0 mm
00:02 -13.7 °C -15 °C 34212.1 hPa WSW 23.3 km/h 44.1 km/h 85 % 0 mm
00:07 -13.7 °C -15 °C 34212.1 hPa WSW 18.2 km/h 44.1 km/h 85 % 0 mm
00:12 -13.7 °C -15 °C 34222.3 hPa WSW 15.6 km/h 44.1 km/h 85 % 0 mm
00:17 -13.7 °C -14.9 °C 34222.3 hPa West 33.6 km/h 46.7 km/h 86 % 0 mm
00:22 -13.7 °C -14.9 °C 34212.1 hPa West 18.2 km/h 49.2 km/h 86 % 0 mm
00:32 -13.7 °C -14.9 °C 34222.3 hPa WSW 28.5 km/h 44.1 km/h 86 % 0 mm
00:37 -13.7 °C -14.9 °C 34222.3 hPa West 23.3 km/h 44.1 km/h 86 % 0 mm
00:47 -13.7 °C -14.8 °C 34222.3 hPa SW 31.1 km/h 36.2 km/h 87 % 0 mm
00:57 -13.6 °C -14.7 °C 34222.3 hPa SW 23.3 km/h 51.8 km/h 87 % 0 mm
01:02 -13.6 °C -14.7 °C 34212.1 hPa WSW 20.8 km/h 51.8 km/h 87 % 0 mm
01:07 -13.6 °C -14.7 °C 34212.1 hPa West 20.8 km/h 38.8 km/h 87 % 0 mm
01:12 -13.6 °C -14.7 °C 34222.3 hPa WSW 20.8 km/h 41.4 km/h 87 % 0 mm
01:17 -13.6 °C -14.6 °C 34222.3 hPa West 12.9 km/h 41.4 km/h 88 % 0 mm
01:22 -13.6 °C -14.7 °C 34222.3 hPa WSW 15.6 km/h 33.6 km/h 87 % 0 mm
01:27 -13.5 °C -14.6 °C 34222.3 hPa WSW 12.9 km/h 38.8 km/h 87 % 0 mm
01:32 -13.6 °C -14.7 °C 34222.3 hPa West 20.8 km/h 38.8 km/h 87 % 0 mm
01:37 -13.5 °C -14.6 °C 34222.3 hPa SW 18.2 km/h 41.4 km/h 87 % 0 mm
01:42 -13.5 °C -14.6 °C 34222.3 hPa SW 18.2 km/h 41.4 km/h 87 % 0 mm
01:47 -13.5 °C -14.6 °C 34222.3 hPa WSW 25.9 km/h 41.4 km/h 87 % 0 mm
01:52 -13.5 °C -14.6 °C 34222.3 hPa SW 15.6 km/h 41.4 km/h 87 % 0 mm
01:57 -13.5 °C -14.6 °C 34222.3 hPa West 28.5 km/h 41.4 km/h 87 % 0 mm
02:02 -13.4 °C -14.7 °C 34222.3 hPa WSW 15.6 km/h 41.4 km/h 86 % 0 mm
02:12 -13.4 °C -14.7 °C 34222.3 hPa WSW 23.3 km/h 46.7 km/h 85 % 0 mm
02:17 -13.4 °C -14.7 °C 34222.3 hPa WSW 15.6 km/h 46.7 km/h 86 % 0 mm
02:22 -13.4 °C -14.7 °C 34222.3 hPa SW 20.8 km/h 46.7 km/h 86 % 0 mm
02:27 -13.4 °C -14.7 °C 34222.3 hPa WSW 18.2 km/h 33.6 km/h 86 % 0 mm
02:32 -13.5 °C -14.7 °C 34212.1 hPa WSW 7.7 km/h 33.6 km/h 86 % 0 mm
02:37 -13.5 °C -14.6 °C 34212.1 hPa West 12.9 km/h 33.6 km/h 87 % 0 mm
02:42 -13.5 °C -14.6 °C 34212.1 hPa SW 12.9 km/h 28.5 km/h 87 % 0 mm
02:52 -13.5 °C -14.6 °C 34212.1 hPa WSW 5.1 km/h 28.5 km/h 87 % 0 mm
02:57 -13.6 °C -14.7 °C 34212.1 hPa SW 12.9 km/h 25.9 km/h 87 % 0 mm
03:02 -13.6 °C -14.6 °C 34198.6 hPa SW 12.9 km/h 23.3 km/h 88 % 0 mm
03:07 -13.6 °C -14.7 °C 34198.6 hPa South 10.3 km/h 23.3 km/h 88 % 0 mm
03:12 -13.7 °C -14.7 °C 34198.6 hPa WSW 7.7 km/h 20.8 km/h 88 % 0 mm
03:17 -13.7 °C -14.6 °C 34198.6 hPa WSW 10.3 km/h 25.9 km/h 89 % 0 mm
03:22 -13.7 °C -14.6 °C 34188.4 hPa WSW 12.9 km/h 25.9 km/h 89 % 0 mm
03:27 -13.7 °C -14.7 °C 34188.4 hPa SW 10.3 km/h 25.9 km/h 88 % 0 mm
03:32 -13.7 °C -14.6 °C 34188.4 hPa SW 10.3 km/h 25.9 km/h 89 % 0 mm
03:37 -13.7 °C -14.7 °C 34188.4 hPa SW 18.2 km/h 20.8 km/h 89 % 0 mm
03:42 -13.7 °C -14.6 °C 34188.4 hPa SW 15.6 km/h 25.9 km/h 89 % 0 mm
03:47 -13.7 °C -14.6 °C 34188.4 hPa SSW 7.7 km/h 25.9 km/h 89 % 0 mm
03:52 -13.7 °C -14.6 °C 34178.3 hPa WSW 15.6 km/h 25.9 km/h 89 % 0 mm
03:57 -13.7 °C -14.6 °C 34178.3 hPa SW 23.3 km/h 25.9 km/h 89 % 0 mm
04:02 -13.7 °C -14.6 °C 34178.3 hPa WSW 12.9 km/h 28.5 km/h 89 % 0 mm
04:07 -13.7 °C -14.5 °C 34178.3 hPa WSW 12.9 km/h 28.5 km/h 90 % 0 mm
04:12 -13.7 °C -14.6 °C 34188.4 hPa SW 10.3 km/h 28.5 km/h 90 % 0 mm
04:17 -13.7 °C -14.5 °C 34178.3 hPa WSW 20.8 km/h 25.9 km/h 90 % 0 mm
04:22 -13.7 °C -14.5 °C 34178.3 hPa SW 10.3 km/h 28.5 km/h 90 % 0 mm
04:27 -13.7 °C -14.5 °C 34188.4 hPa SW 20.8 km/h 31.1 km/h 90 % 0 mm
04:32 -13.6 °C -14.4 °C 34178.3 hPa SW 12.9 km/h 31.1 km/h 90 % 0 mm
04:37 -13.6 °C -14.4 °C 34178.3 hPa WSW 12.9 km/h 31.1 km/h 90 % 0 mm
04:47 -13.6 °C -14.3 °C 34178.3 hPa West 15.6 km/h 28.5 km/h 91 % 0 mm
04:52 -13.6 °C -14.3 °C 34178.3 hPa West 2.6 km/h 25.9 km/h 91 % 0 mm
04:57 -13.6 °C -14.3 °C 34178.3 hPa West 12.9 km/h 25.9 km/h 91 % 0 mm
05:02 -13.6 °C -14.3 °C 34178.3 hPa West 20.8 km/h 25.9 km/h 91 % 0 mm
05:12 -13.6 °C -14.4 °C 34178.3 hPa WSW 25.9 km/h 25.9 km/h 90 % 0 mm
05:17 -13.6 °C -14.4 °C 34178.3 hPa West 15.6 km/h 33.6 km/h 90 % 0 mm
05:22 -13.6 °C -14.4 °C 34178.3 hPa WSW 15.6 km/h 33.6 km/h 90 % 0 mm
05:32 -13.6 °C -14.4 °C 34178.3 hPa WSW 15.6 km/h 25.9 km/h 90 % 0 mm
05:42 -13.6 °C -14.4 °C 34178.3 hPa West 12.9 km/h 25.9 km/h 90 % 0 mm
05:47 -13.5 °C -14.6 °C 34164.7 hPa West 23.3 km/h 38.8 km/h 88 % 0 mm
05:52 -13.5 °C -14.7 °C 34164.7 hPa West 12.9 km/h 38.8 km/h 86 % 0 mm
05:57 -13.4 °C -15.2 °C 34164.7 hPa West 20.8 km/h 38.8 km/h 81 % 0 mm
06:02 -13.4 °C -15.2 °C 34154.6 hPa West 25.9 km/h 49.2 km/h 81 % 0 mm
06:12 -13.5 °C -15.1 °C 34144.4 hPa WSW 7.7 km/h 36.2 km/h 82 % 0 mm
06:17 -13.6 °C -15.1 °C 34144.4 hPa WSW 2.6 km/h 36.2 km/h 83 % 0 mm
06:22 -13.6 °C -15.1 °C 34144.4 hPa SW 18.2 km/h 36.2 km/h 83 % 0 mm
06:27 -13.7 °C -15.1 °C 34144.4 hPa WSW 23.3 km/h 33.6 km/h 84 % 0 mm
06:32 -13.8 °C -15 °C 34144.4 hPa West 12.9 km/h 33.6 km/h 86 % 7.62 mm
06:37 -13.8 °C -14.9 °C 34144.4 hPa WSW 12.9 km/h 33.6 km/h 87 % 12.7 mm
06:42 -13.9 °C -14.9 °C 34144.4 hPa West 12.9 km/h 28.5 km/h 88 % 12.7 mm
06:47 -14 °C -15 °C 34144.4 hPa West 12.9 km/h 18.2 km/h 88 % 12.7 mm
06:57 -14.1 °C -15 °C 34130.9 hPa West 7.7 km/h 25.9 km/h 89 % 20.32 mm
07:02 -14.1 °C -15.1 °C 34130.9 hPa WSW 15.6 km/h 25.9 km/h 89 % 20.32 mm
07:12 -14.2 °C -15.2 °C 34130.9 hPa West 12.9 km/h 18.2 km/h 88 % 25.4 mm
07:17 -14.3 °C -15.2 °C 34130.9 hPa West 5.1 km/h 20.8 km/h 89 % 33.02 mm
07:22 -14.3 °C -15.3 °C 34120.7 hPa Calm   20.8 km/h 89 % 33.02 mm
07:27 -14.3 °C -15.3 °C 34097 hPa Calm   20.8 km/h 89 % 25.4 mm
07:32 -14.4 °C -15.3 °C 34107.2 hPa SW 10.3 km/h 12.9 km/h 89 % 20.32 mm
07:37 -14.4 °C -15.3 °C 34107.2 hPa SW 5.1 km/h 10.3 km/h 90 % 20.32 mm
07:42 -14.4 °C -15.3 °C 34107.2 hPa SW 2.6 km/h 10.3 km/h 90 % 20.32 mm
07:47 -14.5 °C -15.3 °C 34097 hPa Calm   10.3 km/h 90 % 12.7 mm
07:52 -14.5 °C -15.3 °C 34086.9 hPa Calm   10.3 km/h 91 % 20.32 mm
07:57 -14.6 °C -15.3 °C 34086.9 hPa Calm   5.1 km/h 91 % 20.32 mm
08:02 -14.6 °C -15.3 °C 34086.9 hPa Calm   5.1 km/h 92 % 25.4 mm
08:07 -14.6 °C -15.3 °C 34086.9 hPa Calm   5.1 km/h 92 % 20.32 mm
08:12 -14.6 °C -15.3 °C 34086.9 hPa Calm   5.1 km/h 92 % 20.32 mm
08:17 -14.6 °C -15.2 °C 34086.9 hPa Calm   5.1 km/h 93 % 20.32 mm
08:22 -14.6 °C -15.2 °C 34073.3 hPa Calm     93 % 20.32 mm
08:27 -14.6 °C -15.2 °C 34073.3 hPa Calm   2.6 km/h 93 % 20.32 mm
08:32 -14.6 °C -15.1 °C 34063.2 hPa ESE 2.6 km/h 5.1 km/h 94 % 20.32 mm
08:37 -14.6 °C -15.1 °C 34063.2 hPa East 2.6 km/h 5.1 km/h 94 % 12.7 mm
08:42 -14.6 °C -15.1 °C 34073.3 hPa Calm   5.1 km/h 94 % 20.32 mm
08:47 -14.6 °C -15.1 °C 34063.2 hPa SE 2.6 km/h 5.1 km/h 94 % 12.7 mm
08:52 -14.6 °C -15 °C 34049.6 hPa SE 2.6 km/h 5.1 km/h 95 % 20.32 mm
08:57 -14.6 °C -15 °C 34049.6 hPa ESE 2.6 km/h 7.7 km/h 95 % 38.1 mm
09:02 -14.6 °C -15 °C 34049.6 hPa SSE 7.7 km/h 10.3 km/h 95 % 45.72 mm
09:12 -14.6 °C -15 °C 34049.6 hPa South 7.7 km/h 12.9 km/h 95 % 45.72 mm
09:17 -14.6 °C -15 °C 34039.5 hPa SSE 15.6 km/h 15.6 km/h 95 % 50.8 mm
09:22 -14.6 °C -15 °C 34029.3 hPa SE 2.6 km/h 18.2 km/h 95 % 50.8 mm
09:32 -14.5 °C -14.8 °C 34005.6 hPa ESE 18.2 km/h 25.9 km/h 96 % 63.5 mm
09:37 -14.4 °C -14.8 °C 34005.6 hPa SSE 12.9 km/h 28.5 km/h 96 % 63.5 mm
09:42 -14.3 °C -14.7 °C 33992.1 hPa SSE 15.6 km/h 28.5 km/h 96 % 63.5 mm
09:47 -14.3 °C -14.6 °C 33981.9 hPa South 10.3 km/h 28.5 km/h 96 % 63.5 mm
09:52 -14.3 °C -14.6 °C 33971.7 hPa SE 12.9 km/h 25.9 km/h 96 % 58.42 mm
10:02 -14.2 °C -14.6 °C 33948 hPa ESE 25.9 km/h 28.5 km/h 96 % 38.1 mm
10:07 -14.2 °C -14.6 °C 33937.9 hPa SE 23.3 km/h 31.1 km/h 96 % 38.1 mm
10:12 -14.2 °C -14.5 °C 33937.9 hPa SSE 36.2 km/h 36.2 km/h 96 % 38.1 mm
10:17 -14.2 °C -14.5 °C 33924.3 hPa SE 7.7 km/h 36.2 km/h 96 % 33.02 mm
10:22 -14.2 °C -14.6 °C 33914.2 hPa SSE 18.2 km/h 44.1 km/h 95 % 33.02 mm
10:27 -14.2 °C -14.6 °C 33900.6 hPa SSE 28.5 km/h 44.1 km/h 96 % 25.4 mm
10:32 -14.3 °C -14.7 °C 33890.5 hPa SSE 12.9 km/h 44.1 km/h 95 % 25.4 mm
10:37 -14.3 °C -14.7 °C 33880.3 hPa SE 12.9 km/h 38.8 km/h 95 % 25.4 mm
10:42 -14.3 °C -14.7 °C 33856.6 hPa ESE 18.2 km/h 38.8 km/h 95 % 25.4 mm
10:47 -14.3 °C -14.6 °C 33822.8 hPa SSE 15.6 km/h 49.2 km/h 96 % 33.02 mm
10:52 -14.3 °C -14.6 °C 33809.2 hPa SSE 18.2 km/h 49.2 km/h 96 % 33.02 mm
10:57 -14.2 °C -14.6 °C 33809.2 hPa South 20.8 km/h 49.2 km/h 96 % 33.02 mm
11:02 -14.2 °C -14.5 °C 33832.9 hPa SSW 28.5 km/h 49.2 km/h 96 % 25.4 mm
11:07 -14.1 °C -14.4 °C 33832.9 hPa SE 15.6 km/h 51.8 km/h 96 % 25.4 mm
11:12 -14 °C -14.2 °C 33822.8 hPa South 33.6 km/h 51.8 km/h 97 % 33.02 mm
11:17 -13.7 °C -13.9 °C 33822.8 hPa SSW 41.4 km/h 51.8 km/h 97 % 25.4 mm
11:22 -13.3 °C -13.7 °C 33809.2 hPa South 44.1 km/h 51.8 km/h 95 % 25.4 mm
11:27 -13.2 °C -13.8 °C 33788.9 hPa SSW 25.9 km/h 62.1 km/h 93 % 20.32 mm
11:32 -13.1 °C -13.7 °C 33788.9 hPa SSW 31.1 km/h 62.1 km/h 93 % 20.32 mm
11:37 -13 °C -13.6 °C 33788.9 hPa SW 23.3 km/h 59.5 km/h 93 % 20.32 mm
11:42 -12.9 °C -13.5 °C 33799.1 hPa SW 46.7 km/h 62.1 km/h 93 % 12.7 mm
11:52 -12.7 °C -14.2 °C 33788.9 hPa West 46.7 km/h 75.2 km/h 83 % 12.7 mm
11:57 -12.6 °C -14.7 °C 33788.9 hPa WSW 57 km/h 93.2 km/h 77 % 12.7 mm
12:02 -12.6 °C -14.7 °C 33788.9 hPa West 44.1 km/h 93.2 km/h 77 % 12.7 mm
12:07 -12.7 °C -14.4 °C 33799.1 hPa West 38.8 km/h 93.2 km/h 81 % 12.7 mm
12:12 -12.9 °C -14.6 °C 33788.9 hPa SSW 28.5 km/h 90.6 km/h 81 % 12.7 mm
12:17 -13 °C -14.6 °C 33788.9 hPa West 59.5 km/h 82.9 km/h 82 % 20.32 mm
12:22 -13.1 °C -14.5 °C 33799.1 hPa West 51.8 km/h 88 km/h 84 % 20.32 mm
12:32 -13.4 °C -14.5 °C 33799.1 hPa West 38.8 km/h 88 km/h 87 % 38.1 mm
12:37 -13.5 °C -14.6 °C 33788.9 hPa West 36.2 km/h 98.3 km/h 88 % 45.72 mm
12:42 -13.6 °C -14.6 °C 33788.9 hPa West 33.6 km/h 98.3 km/h 89 % 50.8 mm
12:47 -13.7 °C -14.5 °C 33788.9 hPa West 33.6 km/h 98.3 km/h 90 % 50.8 mm
12:52 -13.7 °C -14.5 °C 33788.9 hPa NNW 28.5 km/h 95.8 km/h 90 % 58.42 mm
12:57 -13.7 °C -14.5 °C 33788.9 hPa SW 28.5 km/h 67.3 km/h 90 % 58.42 mm
13:02 -13.6 °C -14.4 °C 33788.9 hPa WSW 41.4 km/h 64.7 km/h 90 % 63.5 mm
13:07 -13.5 °C -14.4 °C 33788.9 hPa WNW 28.5 km/h 77.7 km/h 89 % 71.12 mm
13:12 -13.5 °C -14.4 °C 33788.9 hPa West 36.2 km/h 77.7 km/h 89 % 71.12 mm
13:17 -13.4 °C -14.4 °C 33788.9 hPa WNW 72.6 km/h 77.7 km/h 88 % 63.5 mm
13:22 -13.4 °C -14.4 °C 33799.1 hPa WSW 72.6 km/h 93.2 km/h 88 % 63.5 mm
13:27 -13.3 °C -14.3 °C 33799.1 hPa WNW 49.2 km/h 93.2 km/h 88 % 63.5 mm
13:32 -13.2 °C -14.3 °C 33809.2 hPa WNW 41.4 km/h 93.2 km/h 88 % 58.42 mm
13:37 -13.2 °C -14.3 °C 33822.8 hPa West 20.8 km/h 90.6 km/h 87 % 50.8 mm
13:42 -13.2 °C -14.3 °C 33822.8 hPa West 49.2 km/h 80.3 km/h 87 % 45.72 mm
13:47 -13.1 °C -14.2 °C 33822.8 hPa WNW 64.7 km/h 80.3 km/h 87 % 38.1 mm
13:52 -13 °C -14.2 °C 33822.8 hPa WNW 46.7 km/h 80.3 km/h 86 % 33.02 mm
13:57 -12.9 °C -14.2 °C 33832.9 hPa West 41.4 km/h 85.5 km/h 86 % 25.4 mm
14:02 -12.9 °C -14.1 °C 33832.9 hPa WNW 25.9 km/h 85.5 km/h 86 % 20.32 mm
14:07 -12.9 °C -14.1 °C 33843.1 hPa WNW 41.4 km/h 80.3 km/h 86 % 12.7 mm
14:12 -12.9 °C -14.2 °C 33843.1 hPa West 64.7 km/h 69.8 km/h 85 % 12.7 mm
14:22 -12.7 °C -14.1 °C 33856.6 hPa West 49.2 km/h 85.5 km/h 85 % 7.62 mm
14:27 -12.7 °C -13.9 °C 33866.8 hPa NW 31.1 km/h 85.5 km/h 86 % 0 mm
14:32 -12.7 °C -14.1 °C 33866.8 hPa West 51.8 km/h 82.9 km/h 85 % 0 mm
14:37 -12.9 °C -14.4 °C 33866.8 hPa West 82.9 km/h 85.5 km/h 83 % 0 mm
14:42 -12.9 °C -14.3 °C 33880.3 hPa WNW 33.6 km/h 88 km/h 84 % 0 mm
14:47 -12.8 °C -14.4 °C 33880.3 hPa West 41.4 km/h 88 km/h 82 % 0 mm
14:52 -12.8 °C -14.3 °C 33890.5 hPa WNW 38.8 km/h 88 km/h 83 % 7.62 mm
14:57 -12.8 °C -14.3 °C 33890.5 hPa WNW 62.1 km/h 80.3 km/h 84 % 7.62 mm
15:02 -12.9 °C -14.2 °C 33900.6 hPa WNW 57 km/h 80.3 km/h 86 % 7.62 mm
15:07 -13 °C -14.2 °C 33900.6 hPa WNW 36.2 km/h 77.7 km/h 86 % 7.62 mm
15:12 -13 °C -14.2 °C 33914.2 hPa WNW 18.2 km/h 77.7 km/h 86 % 7.62 mm
15:17 -13.2 °C -14.3 °C 33924.3 hPa West 41.4 km/h 75.2 km/h 87 % 7.62 mm
15:22 -13.2 °C -14.3 °C 33937.9 hPa WNW 31.1 km/h 75.2 km/h 88 % 12.7 mm
15:27 -13.3 °C -14.4 °C 33958.2 hPa NW 25.9 km/h 75.2 km/h 88 % 12.7 mm
15:37 -13.9 °C -15.1 °C 33992.1 hPa NNW 38.8 km/h 72.6 km/h 87 % 12.7 mm
15:42 -14.1 °C -15.1 °C 34015.8 hPa NNW 31.1 km/h 80.3 km/h 89 % 12.7 mm
15:47 -14.3 °C -15.3 °C 34029.3 hPa NNW 15.6 km/h 80.3 km/h 89 % 12.7 mm
15:52 -14.5 °C -15.4 °C 34039.5 hPa NW 18.2 km/h 80.3 km/h 89 % 12.7 mm
16:02 -14.8 °C -15.7 °C 34086.9 hPa NNW 31.1 km/h 69.8 km/h 89 % 12.7 mm
16:07 -14.9 °C -15.6 °C 34097 hPa NW 28.5 km/h 69.8 km/h 91 % 12.7 mm
16:12 -14.9 °C -15.6 °C 34120.7 hPa NNW 44.1 km/h 69.8 km/h 92 % 12.7 mm
16:17 -15.1 °C -15.8 °C 34130.9 hPa WNW 33.6 km/h 75.2 km/h 91 % 7.62 mm
16:22 -15.1 °C -15.8 °C 34144.4 hPa North 31.1 km/h 75.2 km/h 91 % 7.62 mm
16:27 -15.1 °C -15.8 °C 34154.6 hPa WNW 54.4 km/h 75.2 km/h 91 % 12.7 mm
16:32 -15.1 °C -15.8 °C 34164.7 hPa NW 20.8 km/h 80.3 km/h 91 % 12.7 mm
16:37 -15.2 °C -16 °C 34178.3 hPa NW 36.2 km/h 80.3 km/h 90 % 12.7 mm
16:42 -15.2 °C -15.9 °C 34188.4 hPa NW 20.8 km/h 80.3 km/h 91 % 12.7 mm
16:47 -15.2 °C -15.9 °C 34198.6 hPa NW 54.4 km/h 67.3 km/h 91 % 12.7 mm
16:52 -15.3 °C -16.1 °C 34198.6 hPa WNW 23.3 km/h 67.3 km/h 91 % 12.7 mm
16:57 -15.3 °C -16.1 °C 34212.1 hPa West 33.6 km/h 59.5 km/h 91 % 20.32 mm
17:02 -15.3 °C -16.2 °C 34235.8 hPa NW 33.6 km/h 59.5 km/h 90 % 20.32 mm
17:07 -15.3 °C -16.1 °C 34235.8 hPa NW 33.6 km/h 67.3 km/h 90 % 20.32 mm
17:17 -15.3 °C -16 °C 34256.2 hPa NW 31.1 km/h 75.2 km/h 91 % 25.4 mm
17:22 -15.3 °C -16 °C 34256.2 hPa WNW 38.8 km/h 75.2 km/h 91 % 33.02 mm
17:27 -15.3 °C -16 °C 34256.2 hPa NW 25.9 km/h 59.5 km/h 91 % 25.4 mm
17:32 -15.3 °C -16 °C 34269.7 hPa ESE 18.2 km/h 59.5 km/h 91 % 33.02 mm
17:37 -15.3 °C -16.1 °C 34279.9 hPa NNW 7.7 km/h 59.5 km/h 90 % 25.4 mm
17:42 -15.3 °C -16.1 °C 34293.4 hPa NW 7.7 km/h 59.5 km/h 90 % 25.4 mm
17:47 -15.3 °C -16.1 °C 34293.4 hPa NNW 23.3 km/h 54.4 km/h 90 % 20.32 mm
17:52 -15.3 °C -16.1 °C 34293.4 hPa NNW 15.6 km/h 64.7 km/h 90 % 25.4 mm
17:57 -15.3 °C -16.1 °C 34303.6 hPa NW 25.9 km/h 64.7 km/h 90 % 20.32 mm
18:02 -15.3 °C -16.1 °C 34303.6 hPa WNW 31.1 km/h 57 km/h 90 % 20.32 mm
18:07 -15.3 °C -16.1 °C 34313.7 hPa West 20.8 km/h 57 km/h 90 % 20.32 mm
18:12 -15.3 °C -16 °C 34313.7 hPa WNW 25.9 km/h 57 km/h 91 % 25.4 mm
18:17 -15.2 °C -16.1 °C 34327.3 hPa WNW 46.7 km/h 54.4 km/h 90 % 20.32 mm
18:22 -15.2 °C -16.1 °C 34327.3 hPa NW 15.6 km/h 54.4 km/h 90 % 12.7 mm
18:32 -15.3 °C -16.1 °C 34337.4 hPa WNW 15.6 km/h 59.5 km/h 90 % 12.7 mm
18:37 -15.3 °C -16.2 °C 34337.4 hPa WNW 36.2 km/h 59.5 km/h 90 % 12.7 mm
18:42 -15.3 °C -16.2 °C 34337.4 hPa WNW 28.5 km/h 59.5 km/h 90 % 12.7 mm
18:47 -15.3 °C -16.2 °C 34347.6 hPa WNW 33.6 km/h 54.4 km/h 90 % 12.7 mm
18:52 -15.4 °C -16.2 °C 34347.6 hPa WNW 10.3 km/h 54.4 km/h 90 % 12.7 mm
18:57 -15.3 °C -16.2 °C 34347.6 hPa West 28.5 km/h 59.5 km/h 90 % 12.7 mm
19:02 -15.3 °C -16.3 °C 34347.6 hPa SW 25.9 km/h 59.5 km/h 89 % 12.7 mm
19:07 -15.3 °C -16.2 °C 34347.6 hPa West 28.5 km/h 59.5 km/h 89 % 7.62 mm
19:12 -15.3 °C -16.2 °C 34347.6 hPa WSW 25.9 km/h 54.4 km/h 89 % 7.62 mm
19:17 -15.2 °C -16.2 °C 34361.1 hPa West 33.6 km/h 54.4 km/h 89 % 7.62 mm
19:22 -15.2 °C -16.2 °C 34361.1 hPa WNW 36.2 km/h 49.2 km/h 89 % 7.62 mm
19:27 -15.2 °C -16.1 °C 34361.1 hPa West 12.9 km/h 54.4 km/h 89 % 7.62 mm
19:32 -15.1 °C -16.1 °C 34371.3 hPa West 28.5 km/h 54.4 km/h 89 % 7.62 mm
19:37 -15.1 °C -15.9 °C 34371.3 hPa WNW 28.5 km/h 46.7 km/h 90 % 0 mm
19:42 -15.1 °C -15.9 °C 34371.3 hPa West 25.9 km/h 46.7 km/h 90 % 0 mm
19:47 -15.1 °C -15.8 °C 34371.3 hPa WNW 23.3 km/h 46.7 km/h 91 % 0 mm
19:52 -15.1 °C -15.9 °C 34371.3 hPa WNW 20.8 km/h 36.2 km/h 90 % 7.62 mm
19:57 -15.1 °C -15.9 °C 34371.3 hPa WSW 12.9 km/h 41.4 km/h 90 % 7.62 mm
20:02 -15.1 °C -15.9 °C 34384.8 hPa WNW 10.3 km/h 41.4 km/h 90 % 7.62 mm
20:07 -15.1 °C -15.8 °C 34384.8 hPa WSW 12.9 km/h 41.4 km/h 91 % 7.62 mm
20:12 -15.1 °C -15.8 °C 34384.8 hPa WSW 7.7 km/h 33.6 km/h 91 % 7.62 mm
20:17 -15.1 °C -15.8 °C 34384.8 hPa WSW 12.9 km/h 31.1 km/h 91 % 7.62 mm
20:22 -15.1 °C -15.8 °C 34384.8 hPa West 15.6 km/h 23.3 km/h 91 % 7.62 mm
20:27 -15.1 °C -15.7 °C 34384.8 hPa West 18.2 km/h 31.1 km/h 92 % 7.62 mm
20:32 -15.1 °C -15.7 °C 34384.8 hPa West 12.9 km/h 31.1 km/h 92 % 7.62 mm
20:37 -15.1 °C -15.7 °C 34384.8 hPa SW 12.9 km/h 33.6 km/h 92 % 7.62 mm
20:42 -15.1 °C -15.7 °C 34384.8 hPa West 5.1 km/h 33.6 km/h 92 % 7.62 mm
20:52 -15.1 °C -15.7 °C 34384.8 hPa SW 5.1 km/h 18.2 km/h 93 % 0 mm
20:57 -15.1 °C -15.7 °C 34384.8 hPa West 7.7 km/h 18.2 km/h 93 % 0 mm
21:02 -15.2 °C -15.7 °C 34384.8 hPa WNW 12.9 km/h 18.2 km/h 93 % 0 mm
21:07 -15.2 °C -15.7 °C 34395 hPa West 12.9 km/h 18.2 km/h 93 % 0 mm
21:12 -15.2 °C -15.7 °C 34395 hPa West 12.9 km/h 23.3 km/h 93 % 0 mm
21:17 -15.2 °C -15.7 °C 34395 hPa WSW 10.3 km/h 23.3 km/h 93 % 0 mm
21:22 -15.1 °C -15.7 °C 34395 hPa West 5.1 km/h 20.8 km/h 93 % 0 mm
21:27 -15.1 °C -15.8 °C 34395 hPa West 7.7 km/h 25.9 km/h 92 % 0 mm
21:32 -15.1 °C -15.8 °C 34395 hPa West 10.3 km/h 25.9 km/h 92 % 0 mm
21:37 -15.1 °C -15.7 °C 34395 hPa West 7.7 km/h 25.9 km/h 92 % 0 mm
21:42 -15 °C -15.7 °C 34395 hPa West 7.7 km/h 25.9 km/h 91 % 0 mm
21:47 -14.8 °C -15.8 °C 34405.1 hPa WNW 15.6 km/h 36.2 km/h 89 % 0 mm
21:52 -14.8 °C -15.8 °C 34405.1 hPa West 18.2 km/h 36.2 km/h 88 % 0 mm
21:57 -14.8 °C -15.8 °C 34405.1 hPa West 23.3 km/h 36.2 km/h 88 % 0 mm
22:02 -14.9 °C -15.9 °C 34405.1 hPa West 12.9 km/h 33.6 km/h 88 % 0 mm
22:07 -14.9 °C -15.9 °C 34405.1 hPa West 15.6 km/h 33.6 km/h 89 % 0 mm
22:12 -15 °C -15.8 °C 34418.7 hPa WNW 15.6 km/h 31.1 km/h 90 % 0 mm
22:17 -15.1 °C -15.9 °C 34418.7 hPa SW 12.9 km/h 28.5 km/h 90 % 0 mm
22:22 -15.1 °C -15.9 °C 34418.7 hPa WNW 20.8 km/h 31.1 km/h 90 % 0 mm
22:27 -15.1 °C -16 °C 34418.7 hPa West 20.8 km/h 38.8 km/h 89 % 0 mm
22:32 -15 °C -15.9 °C 34418.7 hPa West 20.8 km/h 38.8 km/h 89 % 0 mm
22:37 -14.9 °C -15.9 °C 34418.7 hPa West 18.2 km/h 38.8 km/h 89 % 0 mm
22:42 -14.9 °C -15.8 °C 34418.7 hPa WNW 23.3 km/h 41.4 km/h 89 % 0 mm
22:47 -14.8 °C -15.8 °C 34418.7 hPa West 25.9 km/h 44.1 km/h 88 % 0 mm
22:52 -14.8 °C -15.8 °C 34418.7 hPa NW 44.1 km/h 49.2 km/h 88 % 0 mm
22:57 -14.7 °C -15.8 °C 34418.7 hPa West 28.5 km/h 49.2 km/h 87 % 0 mm
23:02 -14.7 °C -15.8 °C 34418.7 hPa WNW 49.2 km/h 49.2 km/h 87 % 0 mm
23:07 -14.7 °C -15.8 °C 34428.8 hPa WNW 28.5 km/h 51.8 km/h 87 % 0 mm
23:12 -14.7 °C -15.8 °C 34428.8 hPa WSW 36.2 km/h 51.8 km/h 87 % 0 mm
23:17 -14.7 °C -15.8 °C 34428.8 hPa WNW 20.8 km/h 59.5 km/h 87 % 0 mm
23:22 -14.7 °C -15.8 °C 34428.8 hPa WSW 20.8 km/h 59.5 km/h 87 % 0 mm
23:27 -14.8 °C -15.8 °C 34428.8 hPa WNW 25.9 km/h 59.5 km/h 88 % 0 mm
23:32 -14.8 °C -15.8 °C 34428.8 hPa WSW 18.2 km/h 54.4 km/h 88 % 0 mm
23:37 -14.8 °C -15.8 °C 34428.8 hPa West 20.8 km/h 46.7 km/h 88 % 0 mm
23:42 -14.7 °C -15.7 °C 34418.7 hPa WSW 18.2 km/h 49.2 km/h 88 % 0 mm
23:47 -14.7 °C -15.7 °C 34428.8 hPa West 23.3 km/h 49.2 km/h 89 % 0 mm
23:52 -14.7 °C -15.6 °C 34428.8 hPa WNW 18.2 km/h 49.2 km/h 89 % 0 mm
Meteo18
Compliments of Weather Underground - 4 mb

Script developed by  Jim McMurry - jmcmurry@mwt.net Adapted for the template by  Wim van der Kuil - Leuven-Template.eu

You find our weather info also at:

European Weather Network

Weather Underground

Equipment we use:

Weather-station
Davis Vue

Weather-program
Meteobridge

Weather-server
Raspberry PI 2 B+

Provider
1 and 1

Davis Vue

Meteobridge

Raspberry PI 2 B+

1 and 1